BAW6R KMIA-EGLL
Flight info
| Callsign | BAW6R |
|---|---|
| Flight time | N/A |
| Altitude | 37000 |
| Route | FOLZZ3 SUMRS/M083F370 M204 SOORY DCT 43N050W 46N040W 49N030W 50N020W DCT SOMAX DCT ATSUR/M082F390 DCT LULOX/N0471F390 DCT SIDDI DCT DAWLY DCT ELRIP DCT OTMET |
| Aircraft | A388/J-SADE2E3FGHIJ3J4J5M1RWXY/LB1D1 |
Departure
| Time | 2026-05-06 19:24 |
|---|---|
| Airport | Miami International Airport (KMIA) |
Arrival
| Time | N/A |
|---|---|
| Airport | London Heathrow Airport (EGLL) |
| Time | Latitude | Longitude | Altitude | Speed | Heading |
|---|---|---|---|---|---|
| 2026-05-06 18:56 | 25.79003 | -80.27407 | 20 ft | 0 kts | 51° |
| 2026-05-06 19:08 | 25.78991 | -80.27424 | 21 ft | 3 kts | 51° |
| 2026-05-06 19:08 | 25.78978 | -80.27442 | 20 ft | 3 kts | 52° |
| 2026-05-06 19:09 | 25.78968 | -80.27462 | 20 ft | 3 kts | 75° |
| 2026-05-06 19:09 | 25.78967 | -80.27480 | 22 ft | 3 kts | 108° |
| 2026-05-06 19:09 | 25.78977 | -80.27496 | 22 ft | 3 kts | 140° |
| 2026-05-06 19:09 | 25.78995 | -80.27508 | 20 ft | 3 kts | 162° |
| 2026-05-06 19:10 | 25.79016 | -80.27512 | 21 ft | 3 kts | 177° |
| 2026-05-06 19:10 | 25.79040 | -80.27513 | 20 ft | 3 kts | 177° |
| 2026-05-06 19:10 | 25.79052 | -80.27514 | 21 ft | 0 kts | 177° |
| 2026-05-06 19:16 | 25.79051 | -80.27514 | 22 ft | 1 kts | 177° |
| 2026-05-06 19:16 | 25.79029 | -80.27513 | 23 ft | 5 kts | 177° |
| 2026-05-06 19:16 | 25.78986 | -80.27511 | 20 ft | 7 kts | 177° |
| 2026-05-06 19:16 | 25.78933 | -80.27510 | 22 ft | 8 kts | 187° |
| 2026-05-06 19:17 | 25.78898 | -80.27538 | 24 ft | 6 kts | 253° |
| 2026-05-06 19:17 | 25.78893 | -80.27594 | 20 ft | 9 kts | 261° |
| 2026-05-06 19:17 | 25.78880 | -80.27677 | 20 ft | 13 kts | 262° |
| 2026-05-06 19:17 | 25.78875 | -80.27778 | 20 ft | 8 kts | 269° |
| 2026-05-06 19:18 | 25.78873 | -80.27850 | 21 ft | 11 kts | 268° |
| 2026-05-06 19:18 | 25.78876 | -80.27945 | 21 ft | 14 kts | 283° |
| 2026-05-06 19:18 | 25.78925 | -80.28053 | 22 ft | 18 kts | 303° |
| 2026-05-06 19:18 | 25.78992 | -80.28183 | 21 ft | 19 kts | 298° |
| 2026-05-06 19:19 | 25.79062 | -80.28323 | 24 ft | 21 kts | 300° |
| 2026-05-06 19:19 | 25.79132 | -80.28445 | 22 ft | 16 kts | 311° |
| 2026-05-06 19:19 | 25.79201 | -80.28561 | 24 ft | 20 kts | 299° |
| 2026-05-06 19:19 | 25.79273 | -80.28704 | 24 ft | 21 kts | 299° |
| 2026-05-06 19:20 | 25.79352 | -80.28856 | 22 ft | 24 kts | 300° |
| 2026-05-06 19:20 | 25.79436 | -80.29017 | 23 ft | 19 kts | 299° |
| 2026-05-06 19:20 | 25.79504 | -80.29156 | 24 ft | 22 kts | 298° |
| 2026-05-06 19:20 | 25.79577 | -80.29299 | 22 ft | 22 kts | 300° |
| 2026-05-06 19:21 | 25.79660 | -80.29458 | 24 ft | 25 kts | 299° |
| 2026-05-06 19:21 | 25.79733 | -80.29604 | 24 ft | 19 kts | 299° |
| 2026-05-06 19:21 | 25.79804 | -80.29746 | 22 ft | 22 kts | 299° |
| 2026-05-06 19:21 | 25.79880 | -80.29891 | 22 ft | 23 kts | 301° |
| 2026-05-06 19:22 | 25.79945 | -80.30017 | 19 ft | 15 kts | 298° |
| 2026-05-06 19:22 | 25.80004 | -80.30118 | 22 ft | 14 kts | 335° |
| 2026-05-06 19:22 | 25.80059 | -80.30115 | 20 ft | 6 kts | 45° |
| 2026-05-06 19:22 | 25.80073 | -80.30076 | 20 ft | 1 kts | 88° |
| 2026-05-06 19:23 | 25.80076 | -80.29979 | 18 ft | 43 kts | 87° |
| 2026-05-06 19:23 | 25.80100 | -80.29355 | 21 ft | 115 kts | 87° |
| 2026-05-06 19:24 | 25.80150 | -80.28280 | 24 ft | 161 kts | 87° |
| 2026-05-06 19:24 | 25.80245 | -80.27008 | 423 ft | 164 kts | 86° |
| 2026-05-06 19:24 | 25.80319 | -80.25738 | 912 ft | 167 kts | 96° |
| 2026-05-06 19:24 | 25.80037 | -80.24508 | 1458 ft | 164 kts | 116° |
| 2026-05-06 19:25 | 25.79469 | -80.23397 | 1865 ft | 172 kts | 120° |
| 2026-05-06 19:25 | 25.78857 | -80.22178 | 2032 ft | 190 kts | 118° |
| 2026-05-06 19:25 | 25.78198 | -80.20844 | 2139 ft | 204 kts | 118° |
| 2026-05-06 19:25 | 25.77498 | -80.19401 | 2238 ft | 225 kts | 117° |
| 2026-05-06 19:26 | 25.76716 | -80.17814 | 2521 ft | 246 kts | 119° |
| 2026-05-06 19:26 | 25.75851 | -80.16085 | 2849 ft | 265 kts | 118° |
| 2026-05-06 19:26 | 25.74949 | -80.14302 | 3577 ft | 267 kts | 117° |
| 2026-05-06 19:26 | 25.74226 | -80.12413 | 4358 ft | 267 kts | 99° |
| 2026-05-06 19:27 | 25.74293 | -80.10357 | 4974 ft | 272 kts | 73° |
| 2026-05-06 19:27 | 25.75164 | -80.08504 | 5645 ft | 273 kts | 50° |
| 2026-05-06 19:27 | 25.76459 | -80.06943 | 6351 ft | 274 kts | 45° |
| 2026-05-06 19:27 | 25.77783 | -80.05439 | 6702 ft | 281 kts | 47° |
| 2026-05-06 19:28 | 25.79135 | -80.03835 | 7333 ft | 284 kts | 47° |
| 2026-05-06 19:28 | 25.80452 | -80.02192 | 8074 ft | 284 kts | 48° |
| 2026-05-06 19:28 | 25.81719 | -80.00472 | 8861 ft | 292 kts | 50° |
| 2026-05-06 19:28 | 25.83042 | -79.98766 | 9549 ft | 293 kts | 47° |
| 2026-05-06 19:29 | 25.84421 | -79.97082 | 10196 ft | 296 kts | 47° |
| 2026-05-06 19:29 | 25.85807 | -79.95369 | 10733 ft | 304 kts | 47° |
| 2026-05-06 19:29 | 25.87251 | -79.93559 | 10911 ft | 321 kts | 47° |
| 2026-05-06 19:29 | 25.88765 | -79.91644 | 11087 ft | 338 kts | 47° |
| 2026-05-06 19:30 | 25.90327 | -79.89660 | 11556 ft | 344 kts | 47° |
| 2026-05-06 19:30 | 25.91902 | -79.87650 | 12187 ft | 345 kts | 47° |
| 2026-05-06 19:30 | 25.93482 | -79.85635 | 12795 ft | 346 kts | 46° |
| 2026-05-06 19:30 | 25.95072 | -79.83609 | 13341 ft | 349 kts | 46° |
| 2026-05-06 19:31 | 25.96680 | -79.81570 | 13877 ft | 352 kts | 46° |
| 2026-05-06 19:31 | 25.98294 | -79.79519 | 14402 ft | 354 kts | 46° |
| 2026-05-06 19:31 | 26.01554 | -79.75350 | 15463 ft | 360 kts | 45° |
| 2026-05-06 19:32 | 26.03200 | -79.73246 | 15971 ft | 362 kts | 45° |
| 2026-05-06 19:32 | 26.04858 | -79.71124 | 16488 ft | 364 kts | 45° |
| 2026-05-06 19:32 | 26.06529 | -79.68986 | 16966 ft | 367 kts | 45° |
| 2026-05-06 19:32 | 26.08212 | -79.66836 | 17465 ft | 369 kts | 45° |
| 2026-05-06 19:33 | 26.09905 | -79.64675 | 17941 ft | 372 kts | 44° |
| 2026-05-06 19:33 | 26.11509 | -79.62390 | 18394 ft | 378 kts | 51° |
| 2026-05-06 19:33 | 26.13013 | -79.59978 | 18791 ft | 382 kts | 50° |
| 2026-05-06 19:33 | 26.14552 | -79.57548 | 19170 ft | 386 kts | 50° |
| 2026-05-06 19:34 | 26.16107 | -79.55101 | 19569 ft | 388 kts | 50° |
| 2026-05-06 19:34 | 26.17671 | -79.52641 | 19951 ft | 392 kts | 50° |
| 2026-05-06 19:34 | 26.19251 | -79.50152 | 20321 ft | 395 kts | 50° |
| 2026-05-06 19:34 | 26.20843 | -79.47645 | 20691 ft | 398 kts | 50° |
| 2026-05-06 19:35 | 26.22449 | -79.45118 | 21049 ft | 401 kts | 50° |
| 2026-05-06 19:35 | 26.24063 | -79.42569 | 21401 ft | 404 kts | 50° |
| 2026-05-06 19:35 | 26.25690 | -79.39998 | 21720 ft | 407 kts | 50° |
| 2026-05-06 19:35 | 26.27355 | -79.37439 | 22047 ft | 408 kts | 47° |
| 2026-05-06 19:36 | 26.29273 | -79.35117 | 22380 ft | 407 kts | 39° |
| 2026-05-06 19:36 | 26.31455 | -79.33121 | 22713 ft | 406 kts | 31° |
| 2026-05-06 19:36 | 26.33826 | -79.31422 | 23015 ft | 407 kts | 28° |
| 2026-05-06 19:36 | 26.36227 | -79.29728 | 23345 ft | 409 kts | 28° |
| 2026-05-06 19:37 | 26.38602 | -79.28031 | 23655 ft | 412 kts | 28° |
| 2026-05-06 19:37 | 26.41057 | -79.26277 | 23951 ft | 415 kts | 28° |
| 2026-05-06 19:37 | 26.43458 | -79.24559 | 24257 ft | 417 kts | 28° |
| 2026-05-06 19:37 | 26.45908 | -79.22807 | 24610 ft | 418 kts | 28° |
| 2026-05-06 19:38 | 26.48359 | -79.21055 | 24961 ft | 420 kts | 28° |
| 2026-05-06 19:38 | 26.50826 | -79.19297 | 25288 ft | 421 kts | 28° |
| 2026-05-06 19:38 | 26.53293 | -79.17534 | 25604 ft | 422 kts | 28° |
| 2026-05-06 19:38 | 26.55771 | -79.15762 | 25945 ft | 424 kts | 28° |
| 2026-05-06 19:39 | 26.58262 | -79.13980 | 26266 ft | 426 kts | 28° |
| 2026-05-06 19:39 | 26.60753 | -79.12197 | 26617 ft | 427 kts | 28° |
| 2026-05-06 19:39 | 26.63257 | -79.10400 | 26950 ft | 428 kts | 28° |
| 2026-05-06 19:39 | 26.65767 | -79.08602 | 27298 ft | 430 kts | 27° |
| 2026-05-06 19:40 | 26.68287 | -79.06799 | 27679 ft | 431 kts | 27° |
| 2026-05-06 19:40 | 26.70815 | -79.04988 | 28044 ft | 432 kts | 27° |
| 2026-05-06 19:40 | 26.73352 | -79.03170 | 28452 ft | 434 kts | 27° |
| 2026-05-06 19:40 | 26.75898 | -79.01342 | 28836 ft | 436 kts | 27° |
| 2026-05-06 19:41 | 26.78457 | -78.99506 | 29235 ft | 437 kts | 27° |
| 2026-05-06 19:41 | 26.81021 | -78.97664 | 29649 ft | 439 kts | 27° |
| 2026-05-06 19:41 | 26.83591 | -78.95818 | 30052 ft | 440 kts | 27° |
| 2026-05-06 19:41 | 26.86171 | -78.93963 | 30489 ft | 441 kts | 27° |
| 2026-05-06 19:42 | 26.88771 | -78.92096 | 30785 ft | 446 kts | 27° |
| 2026-05-06 19:42 | 26.91387 | -78.90212 | 31129 ft | 449 kts | 27° |
| 2026-05-06 19:42 | 26.94018 | -78.88315 | 31504 ft | 451 kts | 27° |
| 2026-05-06 19:42 | 26.96663 | -78.86406 | 31835 ft | 454 kts | 27° |
| 2026-05-06 19:43 | 26.99286 | -78.84515 | 32164 ft | 456 kts | 27° |
| 2026-05-06 19:43 | 27.01961 | -78.82583 | 32496 ft | 459 kts | 26° |
| 2026-05-06 19:43 | 27.04656 | -78.80637 | 32823 ft | 461 kts | 26° |
| 2026-05-06 19:43 | 27.07357 | -78.78679 | 33129 ft | 464 kts | 27° |
| 2026-05-06 19:44 | 27.10071 | -78.76708 | 33478 ft | 466 kts | 26° |
| 2026-05-06 19:44 | 27.12809 | -78.74730 | 33820 ft | 468 kts | 26° |
| 2026-05-06 19:44 | 27.15555 | -78.72749 | 34074 ft | 471 kts | 26° |
| 2026-05-06 19:44 | 27.18320 | -78.70750 | 34400 ft | 473 kts | 26° |
| 2026-05-06 19:45 | 27.21096 | -78.68741 | 34678 ft | 476 kts | 26° |
| 2026-05-06 19:45 | 27.23883 | -78.66719 | 35013 ft | 478 kts | 27° |
| 2026-05-06 19:45 | 27.26596 | -78.64518 | 35394 ft | 484 kts | 32° |
| 2026-05-06 19:45 | 27.29122 | -78.62000 | 35787 ft | 489 kts | 38° |
| 2026-05-06 19:46 | 27.31449 | -78.59183 | 36174 ft | 494 kts | 43° |
| 2026-05-06 19:46 | 27.33584 | -78.56144 | 36521 ft | 497 kts | 45° |
| 2026-05-06 19:46 | 27.35722 | -78.53092 | 36862 ft | 497 kts | 44° |
| 2026-05-06 19:46 | 27.37869 | -78.50048 | 37119 ft | 499 kts | 44° |
| 2026-05-06 19:47 | 27.42181 | -78.43930 | 37099 ft | 494 kts | 44° |
| 2026-05-06 19:47 | 27.46400 | -78.37906 | 37099 ft | 493 kts | 44° |
| 2026-05-06 19:48 | 27.50662 | -78.31809 | 37101 ft | 491 kts | 44° |
| 2026-05-06 19:48 | 27.54859 | -78.25801 | 37098 ft | 492 kts | 44° |
| 2026-05-06 19:49 | 27.59083 | -78.19746 | 37104 ft | 491 kts | 44° |
| 2026-05-06 19:49 | 27.63309 | -78.13684 | 37097 ft | 492 kts | 44° |
| 2026-05-06 19:50 | 27.67533 | -78.07610 | 37097 ft | 491 kts | 44° |
| 2026-05-06 19:50 | 27.71750 | -78.01549 | 37077 ft | 492 kts | 44° |
| 2026-05-06 19:51 | 27.75966 | -77.95464 | 37082 ft | 492 kts | 44° |
| 2026-05-06 19:51 | 27.80180 | -77.89378 | 37098 ft | 492 kts | 44° |
| 2026-05-06 19:52 | 27.84394 | -77.83285 | 37107 ft | 492 kts | 44° |
| 2026-05-06 19:52 | 27.88608 | -77.77184 | 37108 ft | 492 kts | 44° |
| 2026-05-06 19:53 | 27.92812 | -77.71094 | 37103 ft | 492 kts | 44° |
| 2026-05-06 19:53 | 27.97014 | -77.64992 | 37108 ft | 491 kts | 44° |
| 2026-05-06 19:54 | 28.01177 | -77.58940 | 37102 ft | 490 kts | 44° |
| 2026-05-06 19:54 | 28.05363 | -77.52842 | 37084 ft | 491 kts | 44° |
| 2026-05-06 19:55 | 28.09556 | -77.46729 | 37095 ft | 492 kts | 44° |
| 2026-05-06 19:55 | 28.13747 | -77.40602 | 37096 ft | 492 kts | 44° |
| 2026-05-06 19:56 | 28.17949 | -77.34460 | 37101 ft | 492 kts | 44° |
| 2026-05-06 19:56 | 28.22138 | -77.28324 | 37083 ft | 492 kts | 44° |
| 2026-05-06 19:57 | 28.26332 | -77.22179 | 37081 ft | 492 kts | 44° |
| 2026-05-06 19:57 | 28.30521 | -77.16032 | 37098 ft | 493 kts | 44° |
| 2026-05-06 19:58 | 28.34704 | -77.09883 | 37100 ft | 492 kts | 44° |
| 2026-05-06 19:58 | 28.38881 | -77.03717 | 37108 ft | 492 kts | 44° |
| 2026-05-06 19:59 | 28.43057 | -76.97559 | 37082 ft | 492 kts | 44° |
| 2026-05-06 19:59 | 28.47228 | -76.91401 | 37077 ft | 492 kts | 44° |
| 2026-05-06 20:00 | 28.51367 | -76.85278 | 37080 ft | 491 kts | 44° |
| 2026-05-06 20:00 | 28.55511 | -76.79139 | 37080 ft | 490 kts | 44° |
| 2026-05-06 20:01 | 28.59649 | -76.72981 | 37083 ft | 489 kts | 44° |
| 2026-05-06 20:01 | 28.63793 | -76.66837 | 37081 ft | 490 kts | 44° |
| 2026-05-06 20:02 | 28.67936 | -76.60681 | 37082 ft | 489 kts | 44° |
| 2026-05-06 20:02 | 28.72076 | -76.54523 | 37081 ft | 489 kts | 43° |
| 2026-05-06 20:03 | 28.75680 | -76.49599 | 37080 ft | 486 kts | 41° |
| 2026-05-06 20:03 | 28.80082 | -76.43755 | 37082 ft | 486 kts | 41° |
| 2026-05-06 20:04 | 28.84454 | -76.37868 | 37083 ft | 487 kts | 41° |
| 2026-05-06 20:04 | 28.88813 | -76.31949 | 37084 ft | 488 kts | 42° |
| 2026-05-06 20:05 | 28.93173 | -76.26020 | 37092 ft | 488 kts | 41° |
| 2026-05-06 20:05 | 28.97529 | -76.20086 | 37083 ft | 488 kts | 42° |
| 2026-05-06 20:06 | 29.01891 | -76.14134 | 37084 ft | 488 kts | 42° |
| 2026-05-06 20:06 | 29.06238 | -76.08193 | 37085 ft | 488 kts | 42° |
| 2026-05-06 20:07 | 29.10585 | -76.02241 | 37080 ft | 488 kts | 42° |
| 2026-05-06 20:07 | 29.14930 | -75.96288 | 37084 ft | 487 kts | 42° |
| 2026-05-06 20:08 | 29.19264 | -75.90347 | 37081 ft | 487 kts | 42° |
| 2026-05-06 20:08 | 29.23591 | -75.84399 | 37073 ft | 486 kts | 42° |
| 2026-05-06 20:09 | 29.27892 | -75.78482 | 37082 ft | 486 kts | 42° |
| 2026-05-06 20:09 | 29.32212 | -75.72527 | 37078 ft | 486 kts | 42° |
| 2026-05-06 20:10 | 29.36528 | -75.66569 | 37078 ft | 486 kts | 42° |
| 2026-05-06 20:10 | 29.40837 | -75.60607 | 37075 ft | 486 kts | 42° |
| 2026-05-06 20:11 | 29.45157 | -75.54640 | 37072 ft | 486 kts | 42° |
| 2026-05-06 20:11 | 29.49467 | -75.48674 | 37066 ft | 487 kts | 42° |
| 2026-05-06 20:12 | 29.53788 | -75.42669 | 37071 ft | 487 kts | 42° |
| 2026-05-06 20:12 | 29.58104 | -75.36665 | 37069 ft | 487 kts | 42° |
| 2026-05-06 20:13 | 29.62410 | -75.30667 | 37068 ft | 487 kts | 42° |
| 2026-05-06 20:13 | 29.66716 | -75.24658 | 37069 ft | 486 kts | 42° |
| 2026-05-06 20:14 | 29.71011 | -75.18673 | 37064 ft | 485 kts | 42° |
| 2026-05-06 20:14 | 29.75301 | -75.12674 | 37065 ft | 485 kts | 42° |
| 2026-05-06 20:15 | 29.79586 | -75.06670 | 37069 ft | 485 kts | 42° |
| 2026-05-06 20:15 | 29.83862 | -75.00673 | 37065 ft | 485 kts | 42° |
| 2026-05-06 20:16 | 29.88102 | -74.94712 | 37065 ft | 483 kts | 42° |
| 2026-05-06 20:16 | 29.92353 | -74.88729 | 37056 ft | 481 kts | 42° |
| 2026-05-06 20:17 | 29.96589 | -74.82765 | 37051 ft | 480 kts | 42° |
| 2026-05-06 20:17 | 30.00814 | -74.76799 | 37055 ft | 479 kts | 42° |
| 2026-05-06 20:18 | 30.05029 | -74.70844 | 37046 ft | 479 kts | 41° |